Time;durP1;ratioP1;P1;durP2;ratioP2;P2;SDS_P1;SDS_P2;PMS_P1;PMS_P2;Temp;Humidity;BMP_temperature;BMP_pressure;BME280_temperature;BME280_humidity;BME280_pressure;Samples;Min_cycle;Max_cycle;Signal;HPM_P1;HPM_P2
2023/04/19 00:00:53;;;;;;;4.43;4.13;;;;;;;;;;5020576;28;20252;-62
2023/04/19 00:03:23;;;;;;;4.53;4.13;;;;;;;;;;5020376;28;20242;-62
2023/04/19 00:05:53;;;;;;;4.18;3.88;;;;;;;;;;5020267;28;20268;-62
2023/04/19 00:08:20;;;;;;;4.32;4.03;;;;;;;;;;5020405;28;20210;-62
2023/04/19 00:10:49;;;;;;;4.32;4.03;;;;;;;;;;5020687;28;20575;-62
2023/04/19 00:13:17;;;;;;;4.60;4.20;;;;;;;;;;5020198;28;20217;-62
2023/04/19 00:15:45;;;;;;;4.13;3.83;;;;;;;;;;5020290;28;20305;-62
2023/04/19 00:18:12;;;;;;;4.43;4.13;;;;;;;;;;5020299;28;20217;-62
2023/04/19 00:20:40;;;;;;;4.43;4.03;;;;;;;;;;5020091;28;20230;-62
2023/04/19 00:23:07;;;;;;;4.10;3.80;;;;;;;;;;5020659;28;20206;-62
2023/04/19 00:25:35;;;;;;;4.38;4.07;;;;;;;;;;5020185;28;20252;-62
2023/04/19 00:28:04;;;;;;;4.18;3.88;;;;;;;;;;5020183;28;20249;-62
2023/04/19 00:30:32;;;;;;;4.57;4.22;;;;;;;;;;5020147;28;20207;-62
2023/04/19 00:32:59;;;;;;;4.35;3.95;;;;;;;;;;5020200;28;20288;-62
2023/04/19 00:35:27;;;;;;;4.20;3.90;;;;;;;;;;5020003;28;20289;-62
2023/04/19 00:37:54;;;;;;;3.97;3.67;;;;;;;;;;5019930;28;20206;-62
2023/04/19 00:40:22;;;;;;;4.70;4.30;;;;;;;;;;5019723;28;20230;-62
2023/04/19 00:42:50;;;;;;;4.18;3.88;;;;;;;;;;5020255;28;20337;-62
2023/04/19 00:45:19;;;;;;;4.25;3.95;;;;;;;;;;5019885;28;20308;-62
2023/04/19 00:47:46;;;;;;;4.63;4.25;;;;;;;;;;5020068;28;20272;-62
2023/04/19 00:50:14;;;;;;;4.30;4.00;;;;;;;;;;5019721;28;20222;-62
2023/04/19 00:52:41;;;;;;;4.35;4.05;;;;;;;;;;5019686;28;20213;-62
2023/04/19 00:55:09;;;;;;;4.40;4.10;;;;;;;;;;5020036;28;20665;-62
2023/04/19 00:57:37;;;;;;;4.93;4.53;;;;;;;;;;5019433;28;20225;-62
2023/04/19 01:00:07;;;;;;;4.15;3.85;;;;;;;;;;5019048;28;20226;-62
2023/04/19 01:02:35;;;;;;;4.32;4.03;;;;;;;;;;5019092;28;20230;-62
2023/04/19 01:05:03;;;;;;;3.75;3.50;;;;;;;;;;5019017;28;20489;-62
2023/04/19 01:07:31;;;;;;;4.43;4.13;;;;;;;;;;5019293;28;20214;-62
2023/04/19 01:09:59;;;;;;;4.65;4.25;;;;;;;;;;5019595;28;20238;-62
2023/04/19 01:12:26;;;;;;;4.40;4.10;;;;;;;;;;5019335;28;20245;-62
2023/04/19 01:14:53;;;;;;;4.07;3.78;;;;;;;;;;5019386;28;20206;-62
2023/04/19 01:17:21;;;;;;;4.10;3.80;;;;;;;;;;5018899;28;20241;-62
2023/04/19 01:19:50;;;;;;;4.50;4.20;;;;;;;;;;5018895;28;20317;-62
2023/04/19 01:22:20;;;;;;;4.30;4.00;;;;;;;;;;5018950;28;20237;-62
2023/04/19 01:24:48;;;;;;;4.35;4.05;;;;;;;;;;5018643;28;20282;-62
2023/04/19 01:27:16;;;;;;;4.40;4.10;;;;;;;;;;5018977;28;20215;-62
2023/04/19 01:29:43;;;;;;;4.03;3.72;;;;;;;;;;5018967;28;20202;-62
2023/04/19 01:32:11;;;;;;;4.38;4.00;;;;;;;;;;5018580;28;20587;-62
2023/04/19 01:34:39;;;;;;;4.13;3.83;;;;;;;;;;5018842;28;20297;-62
2023/04/19 01:37:07;;;;;;;4.18;3.88;;;;;;;;;;5018751;28;20209;-62
2023/04/19 01:39:36;;;;;;;3.72;3.42;;;;;;;;;;5018929;28;20226;-62
2023/04/19 01:42:03;;;;;;;4.47;4.18;;;;;;;;;;5018733;28;20309;-62
2023/04/19 01:44:31;;;;;;;4.28;3.97;;;;;;;;;;5018879;28;20268;-62
2023/04/19 01:46:58;;;;;;;4.10;3.80;;;;;;;;;;5019048;28;20550;-62
2023/04/19 01:49:25;;;;;;;4.38;4.07;;;;;;;;;;5018980;28;20297;-62
2023/04/19 01:51:53;;;;;;;4.32;3.97;;;;;;;;;;5018849;28;20289;-62
2023/04/19 01:54:21;;;;;;;4.57;4.28;;;;;;;;;;5018648;28;20260;-62
2023/04/19 01:56:50;;;;;;;4.72;4.32;;;;;;;;;;5017721;28;20301;-61
2023/04/19 01:59:17;;;;;;;4.57;4.28;;;;;;;;;;5018292;28;20796;-61
2023/04/19 02:01:45;;;;;;;4.30;4.00;;;;;;;;;;5018600;28;20244;-62
2023/04/19 02:04:12;;;;;;;4.35;4.05;;;;;;;;;;5018480;28;20562;-62
2023/04/19 02:06:40;;;;;;;4.55;4.15;;;;;;;;;;5018456;28;20216;-62
2023/04/19 02:09:08;;;;;;;4.50;4.20;;;;;;;;;;5018358;28;20305;-62
2023/04/19 02:11:35;;;;;;;4.38;4.07;;;;;;;;;;5018539;28;20206;-62
2023/04/19 02:14:04;;;;;;;4.15;3.85;;;;;;;;;;5018210;28;20246;-62
2023/04/19 02:16:32;;;;;;;4.50;4.20;;;;;;;;;;5018241;28;20712;-62
2023/04/19 02:18:59;;;;;;;4.07;3.78;;;;;;;;;;5017912;28;20272;-62
2023/04/19 02:21:27;;;;;;;4.60;4.30;;;;;;;;;;5018347;28;20310;-62
2023/04/19 02:23:54;;;;;;;4.72;4.32;;;;;;;;;;5017862;28;20237;-62
2023/04/19 02:26:23;;;;;;;4.32;3.92;;;;;;;;;;5018253;28;20233;-62
2023/04/19 02:28:51;;;;;;;3.97;3.70;;;;;;;;;;5017810;28;20304;-61
2023/04/19 02:31:20;;;;;;;4.43;4.13;;;;;;;;;;5017660;28;20202;-62
2023/04/19 02:33:48;;;;;;;4.10;3.83;;;;;;;;;;5017886;28;20206;-61
2023/04/19 02:36:16;;;;;;;4.15;3.85;;;;;;;;;;5017652;28;20268;-62
2023/04/19 02:38:43;;;;;;;4.22;3.92;;;;;;;;;;5018126;28;20268;-62
2023/04/19 02:41:11;;;;;;;4.40;4.10;;;;;;;;;;5018002;28;20266;-61
2023/04/19 02:43:38;;;;;;;4.20;3.90;;;;;;;;;;5017815;28;20309;-62
2023/04/19 02:46:06;;;;;;;4.10;3.80;;;;;;;;;;5018019;28;20249;-62
2023/04/19 02:48:35;;;;;;;4.28;3.97;;;;;;;;;;5017589;28;20214;-62
2023/04/19 02:51:02;;;;;;;4.10;3.80;;;;;;;;;;5017577;28;20203;-62
2023/04/19 02:53:30;;;;;;;4.65;4.35;;;;;;;;;;5017511;28;20202;-62
2023/04/19 02:55:57;;;;;;;4.40;4.10;;;;;;;;;;5017486;28;20289;-62
2023/04/19 02:58:25;;;;;;;4.30;4.00;;;;;;;;;;5017396;28;20677;-62
2023/04/19 03:00:53;;;;;;;3.92;3.63;;;;;;;;;;5017585;28;20264;-62
2023/04/19 03:03:20;;;;;;;4.20;3.90;;;;;;;;;;5017598;28;20241;-62
2023/04/19 03:05:49;;;;;;;3.95;3.65;;;;;;;;;;5017323;28;20289;-62
2023/04/19 03:08:17;;;;;;;4.20;3.90;;;;;;;;;;5016621;28;20272;-62
2023/04/19 03:10:45;;;;;;;4.07;3.78;;;;;;;;;;5017515;28;20565;-62
2023/04/19 03:13:12;;;;;;;4.20;3.90;;;;;;;;;;5016997;28;20256;-62
2023/04/19 03:15:40;;;;;;;3.95;3.65;;;;;;;;;;5016827;28;20582;-62
2023/04/19 03:18:07;;;;;;;4.18;3.88;;;;;;;;;;5017308;28;20625;-62
2023/04/19 03:20:35;;;;;;;4.10;3.80;;;;;;;;;;5016929;28;20230;-62
2023/04/19 03:23:04;;;;;;;3.90;3.60;;;;;;;;;;5017243;28;20203;-62
2023/04/19 03:25:32;;;;;;;4.10;3.70;;;;;;;;;;5017086;28;20214;-62
2023/04/19 03:27:59;;;;;;;3.40;3.20;;;;;;;;;;5017284;28;20207;-62
2023/04/19 03:30:27;;;;;;;4.10;3.80;;;;;;;;;;5017077;28;20210;-62
2023/04/19 03:32:55;;;;;;;4.03;3.72;;;;;;;;;;5017132;28;20221;-62
2023/04/19 03:35:25;;;;;;;3.75;3.45;;;;;;;;;;5016970;28;20206;-62
2023/04/19 03:37:52;;;;;;;3.85;3.58;;;;;;;;;;5017034;28;20458;-62
2023/04/19 03:40:22;;;;;;;3.95;3.65;;;;;;;;;;5016691;28;20234;-62
2023/04/19 03:42:49;;;;;;;3.67;3.38;;;;;;;;;;5016979;28;20226;-62
2023/04/19 03:45:17;;;;;;;3.80;3.50;;;;;;;;;;5016967;28;20217;-62
2023/04/19 03:47:44;;;;;;;3.70;3.50;;;;;;;;;;5016831;28;20206;-62
2023/04/19 03:50:12;;;;;;;3.80;3.50;;;;;;;;;;5017022;28;20478;-62
2023/04/19 03:52:39;;;;;;;3.67;3.45;;;;;;;;;;5016805;28;20198;-62
2023/04/19 03:55:07;;;;;;;3.40;3.20;;;;;;;;;;5016708;28;20304;-62
2023/04/19 03:57:36;;;;;;;3.88;3.58;;;;;;;;;;5016556;28;20238;-62
2023/04/19 04:00:05;;;;;;;3.67;3.38;;;;;;;;;;5016649;28;20230;-62
2023/04/19 04:02:33;;;;;;;3.60;3.30;;;;;;;;;;5016426;28;20276;-61
2023/04/19 04:05:00;;;;;;;3.65;3.35;;;;;;;;;;5016517;28;20217;-61
2023/04/19 04:07:28;;;;;;;3.50;3.30;;;;;;;;;;5017025;28;20301;-61
2023/04/19 04:09:55;;;;;;;3.53;3.22;;;;;;;;;;5016254;28;20202;-61
2023/04/19 04:12:23;;;;;;;3.72;3.42;;;;;;;;;;5016771;28;20206;-62
2023/04/19 04:14:52;;;;;;;3.25;3.05;;;;;;;;;;5016582;28;20238;-61
2023/04/19 04:17:19;;;;;;;3.40;3.20;;;;;;;;;;5016897;28;20477;-61
2023/04/19 04:19:46;;;;;;;3.35;3.05;;;;;;;;;;5017124;28;20460;-61
2023/04/19 04:22:15;;;;;;;3.25;3.05;;;;;;;;;;5019496;28;20218;-61
2023/04/19 04:24:42;;;;;;;3.60;3.30;;;;;;;;;;5019367;28;20301;-61
2023/04/19 04:27:10;;;;;;;3.78;3.47;;;;;;;;;;5019560;28;20673;-61
2023/04/19 04:29:38;;;;;;;3.80;3.50;;;;;;;;;;5019751;28;20206;-61
2023/04/19 04:32:09;;;;;;;3.47;3.20;;;;;;;;;;5019544;28;20206;-61
2023/04/19 04:34:36;;;;;;;3.22;3.03;;;;;;;;;;5019498;28;20261;-61
2023/04/19 04:37:04;;;;;;;3.10;2.90;;;;;;;;;;5019325;28;20213;-61
2023/04/19 04:39:33;;;;;;;3.22;3.03;;;;;;;;;;5019252;28;20207;-61
2023/04/19 04:42:01;;;;;;;3.58;3.33;;;;;;;;;;5018812;28;20226;-61
2023/04/19 04:44:28;;;;;;;3.60;3.30;;;;;;;;;;5018552;28;20217;-61
2023/04/19 04:46:56;;;;;;;3.20;2.90;;;;;;;;;;5018429;28;20226;-61
2023/04/19 04:49:24;;;;;;;2.90;2.70;;;;;;;;;;5018242;28;20202;-61
2023/04/19 04:51:52;;;;;;;3.30;3.10;;;;;;;;;;5018205;28;20289;-61
2023/04/19 04:54:19;;;;;;;3.30;3.10;;;;;;;;;;5018251;28;20241;-61
2023/04/19 04:56:47;;;;;;;3.40;3.10;;;;;;;;;;5018288;28;20224;-61
2023/04/19 04:59:14;;;;;;;3.50;3.20;;;;;;;;;;5017777;28;20552;-61
2023/04/19 05:01:41;;;;;;;3.00;2.80;;;;;;;;;;5017315;28;20226;-61
2023/04/19 05:04:09;;;;;;;3.20;3.00;;;;;;;;;;5017703;28;20280;-61
2023/04/19 05:06:39;;;;;;;3.28;3.08;;;;;;;;;;5017946;28;20207;-61
2023/04/19 05:09:07;;;;;;;3.00;2.80;;;;;;;;;;5016492;28;20737;-61
2023/04/19 05:11:34;;;;;;;3.50;3.30;;;;;;;;;;5017029;28;20293;-61
2023/04/19 05:14:02;;;;;;;3.47;3.20;;;;;;;;;;5017145;28;20345;-61
2023/04/19 05:16:29;;;;;;;3.30;3.10;;;;;;;;;;5017467;28;20256;-61
2023/04/19 05:18:57;;;;;;;3.17;2.97;;;;;;;;;;5016872;28;20210;-61
2023/04/19 05:21:25;;;;;;;3.50;3.22;;;;;;;;;;5017047;28;20226;-61
2023/04/19 05:23:54;;;;;;;3.13;2.92;;;;;;;;;;5016227;28;20519;-61
2023/04/19 05:26:23;;;;;;;3.40;3.20;;;;;;;;;;5017241;28;20552;-61
2023/04/19 05:28:50;;;;;;;3.47;3.17;;;;;;;;;;5016688;28;20302;-61
2023/04/19 05:31:19;;;;;;;3.10;2.90;;;;;;;;;;5015723;28;20210;-61
2023/04/19 05:33:47;;;;;;;3.50;3.20;;;;;;;;;;5016753;28;20568;-61
2023/04/19 05:36:14;;;;;;;3.10;2.90;;;;;;;;;;5015675;28;20206;-61
2023/04/19 05:38:42;;;;;;;3.38;3.08;;;;;;;;;;5016952;28;20304;-61
2023/04/19 05:41:11;;;;;;;3.22;2.97;;;;;;;;;;5016973;28;20227;-61
2023/04/19 05:43:39;;;;;;;3.22;3.03;;;;;;;;;;5016422;28;20214;-61
2023/04/19 05:46:06;;;;;;;3.53;3.10;;;;;;;;;;5016249;28;20202;-61
2023/04/19 05:48:34;;;;;;;3.38;3.10;;;;;;;;;;5016303;28;20213;-61
2023/04/19 05:51:01;;;;;;;3.25;3.05;;;;;;;;;;5015887;28;20230;-61
2023/04/19 05:53:28;;;;;;;3.50;3.20;;;;;;;;;;5016175;28;20281;-61
2023/04/19 05:55:56;;;;;;;3.10;2.90;;;;;;;;;;5015871;28;20210;-61
2023/04/19 05:58:25;;;;;;;3.08;2.88;;;;;;;;;;5016475;28;20495;-61
2023/04/19 06:00:53;;;;;;;3.67;3.38;;;;;;;;;;5015433;28;20630;-61
2023/04/19 06:03:20;;;;;;;3.50;3.22;;;;;;;;;;5015066;28;20342;-61
2023/04/19 06:05:48;;;;;;;3.45;3.15;;;;;;;;;;5015511;28;20256;-61
2023/04/19 06:08:16;;;;;;;3.00;2.80;;;;;;;;;;5016264;28;20486;-61
2023/04/19 06:10:46;;;;;;;3.28;2.97;;;;;;;;;;5015829;28;20213;-61
2023/04/19 06:13:13;;;;;;;3.13;2.92;;;;;;;;;;5015841;28;20210;-61
2023/04/19 06:15:42;;;;;;;3.53;3.22;;;;;;;;;;5015332;28;20214;-61
2023/04/19 06:18:10;;;;;;;3.10;2.90;;;;;;;;;;5014893;28;20622;-61
2023/04/19 06:20:37;;;;;;;3.70;3.40;;;;;;;;;;5015592;28;20340;-61
2023/04/19 06:23:05;;;;;;;3.42;3.13;;;;;;;;;;5016272;28;20214;-61
2023/04/19 06:25:32;;;;;;;3.03;2.80;;;;;;;;;;5015222;28;20873;-61
2023/04/19 06:28:00;;;;;;;3.13;2.90;;;;;;;;;;5015635;28;20326;-61
2023/04/19 06:30:27;;;;;;;3.47;3.17;;;;;;;;;;5015481;28;20608;-63
2023/04/19 06:32:56;;;;;;;3.38;3.17;;;;;;;;;;5016757;28;20214;-61
2023/04/19 06:35:24;;;;;;;3.72;3.42;;;;;;;;;;5016698;28;20302;-61
2023/04/19 06:37:51;;;;;;;3.72;3.42;;;;;;;;;;5016051;28;20214;-61
2023/04/19 06:40:19;;;;;;;3.35;3.08;;;;;;;;;;5015621;28;20246;-61
2023/04/19 06:42:46;;;;;;;2.88;2.67;;;;;;;;;;5015491;28;20300;-61
2023/04/19 06:45:14;;;;;;;4.47;3.35;;;;;;;;;;5015666;28;20337;-61
2023/04/19 06:47:42;;;;;;;3.45;3.15;;;;;;;;;;5015439;28;20210;-61
2023/04/19 06:50:12;;;;;;;3.30;3.10;;;;;;;;;;5015529;28;20486;-61
2023/04/19 06:52:39;;;;;;;3.50;3.20;;;;;;;;;;5015496;28;20209;-61
2023/04/19 06:55:07;;;;;;;3.80;3.50;;;;;;;;;;5015679;28;20209;-61
2023/04/19 06:57:35;;;;;;;3.20;3.00;;;;;;;;;;5015448;28;20256;-61
2023/04/19 07:00:03;;;;;;;3.38;3.13;;;;;;;;;;5014768;28;20305;-61
2023/04/19 07:02:31;;;;;;;3.78;3.35;;;;;;;;;;5017244;28;20244;-61
2023/04/19 07:04:58;;;;;;;3.58;3.35;;;;;;;;;;5015423;28;20207;-61
2023/04/19 07:07:27;;;;;;;3.63;3.33;;;;;;;;;;5015416;28;20313;-61
2023/04/19 07:09:55;;;;;;;3.72;3.42;;;;;;;;;;5015761;28;20225;-61
2023/04/19 07:12:22;;;;;;;3.60;3.40;;;;;;;;;;5015270;28;20208;-61
2023/04/19 07:14:55;;;;;;;3.80;3.50;;;;;;;;;;5015973;28;20612;-61
2023/04/19 07:17:22;;;;;;;3.50;3.20;;;;;;;;;;5015800;28;20586;-61
2023/04/19 07:19:50;;;;;;;3.70;3.40;;;;;;;;;;5015379;28;20566;-61
2023/04/19 07:22:17;;;;;;;3.70;3.45;;;;;;;;;;5015743;28;20265;-61
2023/04/19 07:24:46;;;;;;;3.75;3.45;;;;;;;;;;5015286;28;20714;-61
2023/04/19 07:27:15;;;;;;;3.80;3.50;;;;;;;;;;5015456;28;20782;-61
2023/04/19 07:29:42;;;;;;;3.55;3.30;;;;;;;;;;5015619;28;20218;-61
2023/04/19 07:32:10;;;;;;;3.60;3.30;;;;;;;;;;5015660;28;20214;-61
2023/04/19 07:34:40;;;;;;;3.60;3.30;;;;;;;;;;5014450;28;20198;-61
2023/04/19 07:37:07;;;;;;;4.13;3.83;;;;;;;;;;5015866;28;20268;-61
2023/04/19 07:39:34;;;;;;;3.92;3.63;;;;;;;;;;5015147;28;20206;-61
2023/04/19 07:42:03;;;;;;;3.60;3.30;;;;;;;;;;5015567;28;20218;-61
2023/04/19 07:44:31;;;;;;;4.07;3.78;;;;;;;;;;5014519;28;20673;-61
2023/04/19 07:46:58;;;;;;;3.85;3.55;;;;;;;;;;5015269;28;20301;-61
2023/04/19 07:49:26;;;;;;;3.55;3.30;;;;;;;;;;5015089;28;20293;-61
2023/04/19 07:51:53;;;;;;;3.95;3.65;;;;;;;;;;5015610;28;20206;-61
2023/04/19 07:54:20;;;;;;;3.30;3.10;;;;;;;;;;5015784;28;20303;-61
2023/04/19 07:56:48;;;;;;;3.85;3.55;;;;;;;;;;5018420;28;20210;-61
2023/04/19 07:59:17;;;;;;;3.53;3.30;;;;;;;;;;5018037;28;20676;-61
2023/04/19 08:01:44;;;;;;;3.50;3.30;;;;;;;;;;5018642;28;20229;-61
2023/04/19 08:04:12;;;;;;;3.47;3.17;;;;;;;;;;5019010;28;20230;-61
2023/04/19 08:06:39;;;;;;;3.35;3.13;;;;;;;;;;5018623;28;20730;-61
2023/04/19 08:09:07;;;;;;;3.95;3.65;;;;;;;;;;5018086;28;20297;-61
2023/04/19 08:11:35;;;;;;;3.55;3.30;;;;;;;;;;5018809;28;20214;-61
2023/04/19 08:14:02;;;;;;;3.38;3.08;;;;;;;;;;5018864;28;20210;-61
2023/04/19 08:16:31;;;;;;;3.10;2.90;;;;;;;;;;5018357;28;20206;-61
2023/04/19 08:18:59;;;;;;;3.60;3.40;;;;;;;;;;5018252;28;20610;-61
2023/04/19 08:21:26;;;;;;;3.75;3.38;;;;;;;;;;5017845;28;20304;-61
2023/04/19 08:23:54;;;;;;;3.40;3.10;;;;;;;;;;5018911;28;20304;-61
2023/04/19 08:26:21;;;;;;;3.53;3.22;;;;;;;;;;5018467;28;20210;-61
2023/04/19 08:28:51;;;;;;;3.22;3.03;;;;;;;;;;5000792;28;20211;-61
2023/04/19 08:31:20;;;;;;;3.20;2.90;;;;;;;;;;4998348;28;20199;-61
2023/04/19 08:33:49;;;;;;;3.40;3.10;;;;;;;;;;4998502;28;20314;-61
2023/04/19 08:36:16;;;;;;;3.28;2.97;;;;;;;;;;4997876;28;20202;-61
2023/04/19 08:38:44;;;;;;;3.50;3.20;;;;;;;;;;4998002;28;20297;-61
2023/04/19 08:41:14;;;;;;;3.22;2.92;;;;;;;;;;4997792;28;20207;-61
2023/04/19 08:43:43;;;;;;;4.00;2.90;;;;;;;;;;4997369;28;20207;-61
2023/04/19 08:46:12;;;;;;;4.30;3.15;;;;;;;;;;4997778;28;20206;-61
2023/04/19 08:48:40;;;;;;;3.45;2.80;;;;;;;;;;4998395;28;20207;-61
2023/04/19 08:51:11;;;;;;;3.10;2.80;;;;;;;;;;4998138;28;20250;-61
2023/04/19 08:53:39;;;;;;;3.30;2.80;;;;;;;;;;4998200;28;20211;-61
2023/04/19 08:56:08;;;;;;;3.53;2.85;;;;;;;;;;4997573;28;20210;-62
2023/04/19 08:58:35;;;;;;;2.90;2.65;;;;;;;;;;4997563;28;20207;-61
2023/04/19 09:01:04;;;;;;;2.70;2.50;;;;;;;;;;4996973;28;20715;-62
2023/04/19 09:03:32;;;;;;;2.80;2.60;;;;;;;;;;4997475;28;20239;-62
2023/04/19 09:06:01;;;;;;;2.97;2.78;;;;;;;;;;4997969;28;20519;-62
2023/04/19 09:08:30;;;;;;;3.00;2.80;;;;;;;;;;4998185;28;20214;-62
2023/04/19 09:10:58;;;;;;;2.70;2.50;;;;;;;;;;4996758;28;20215;-61
2023/04/19 09:13:26;;;;;;;3.88;2.85;;;;;;;;;;4997923;28;20567;-61
2023/04/19 09:15:55;;;;;;;3.53;2.50;;;;;;;;;;4998350;28;20339;-61
2023/04/19 09:18:23;;;;;;;3.85;2.67;;;;;;;;;;4997553;28;20206;-62
2023/04/19 09:20:55;;;;;;;9.93;5.50;;;;;;;;;;4998195;28;20217;-61
2023/04/19 09:23:24;;;;;;;20.45;12.27;;;;;;;;;;4997199;28;20650;-61
2023/04/19 09:25:56;;;;;;;32.33;17.83;;;;;;;;;;4997461;28;20704;-61
2023/04/19 09:28:24;;;;;;;38.97;23.83;;;;;;;;;;4997244;28;20229;-61
2023/04/19 09:30:51;;;;;;;41.67;24.25;;;;;;;;;;4996850;28;20211;-62
2023/04/19 09:33:35;;;;;;;44.13;25.15;;;;;;;;;;4997599;28;20766;-62
2023/04/19 09:36:02;;;;;;;51.42;29.90;;;;;;;;;;4997672;28;20536;-61
2023/04/19 09:38:29;;;;;;;52.20;30.98;;;;;;;;;;4997374;28;20582;-62
2023/04/19 09:41:09;;;;;;;51.60;29.70;;;;;;;;;;4997237;28;20233;-61
2023/04/19 09:43:36;;;;;;;46.95;27.20;;;;;;;;;;4997585;28;20234;-61
2023/04/19 09:46:04;;;;;;;47.05;27.10;;;;;;;;;;4996414;28;20203;-60
2023/04/19 09:48:31;;;;;;;41.90;26.17;;;;;;;;;;4996913;28;20273;-61
2023/04/19 09:50:59;;;;;;;44.25;25.38;;;;;;;;;;4996620;28;20302;-61
2023/04/19 09:53:27;;;;;;;43.67;24.55;;;;;;;;;;4996681;28;20203;-61
2023/04/19 09:55:55;;;;;;;38.45;24.27;;;;;;;;;;4996844;28;20566;-61
2023/04/19 09:58:24;;;;;;;40.05;22.90;;;;;;;;;;4996630;28;20203;-61
2023/04/19 10:00:51;;;;;;;39.47;22.92;;;;;;;;;;4996613;28;20203;-61
2023/04/19 10:03:20;;;;;;;39.35;23.27;;;;;;;;;;4997684;28;20243;-61
2023/04/19 10:05:48;;;;;;;36.65;22.50;;;;;;;;;;4995761;28;20234;-61
2023/04/19 10:08:15;;;;;;;33.53;22.10;;;;;;;;;;4995684;28;20230;-61
2023/04/19 10:10:43;;;;;;;36.25;20.88;;;;;;;;;;4996306;28;20681;-61
2023/04/19 10:13:12;;;;;;;35.17;20.52;;;;;;;;;;4995310;28;20270;-61
2023/04/19 10:15:42;;;;;;;33.42;20.25;;;;;;;;;;4996116;28;20218;-62
2023/04/19 10:18:10;;;;;;;32.50;19.05;;;;;;;;;;4994190;28;20310;-61
2023/04/19 10:20:39;;;;;;;34.13;18.85;;;;;;;;;;4994696;28;20207;-61
2023/04/19 10:23:08;;;;;;;30.42;17.75;;;;;;;;;;4996394;28;20325;-61
2023/04/19 10:25:37;;;;;;;28.20;17.95;;;;;;;;;;4995301;28;20211;-62
2023/04/19 10:28:05;;;;;;;26.90;16.33;;;;;;;;;;4995306;28;20211;-62
2023/04/19 10:30:32;;;;;;;26.23;16.90;;;;;;;;;;4994778;28;20203;-61
2023/04/19 10:33:02;;;;;;;24.50;15.80;;;;;;;;;;4993834;28;20625;-61
2023/04/19 10:35:36;;;;;;;26.75;15.77;;;;;;;;;;4993103;28;20229;-61
2023/04/19 10:38:05;;;;;;;24.20;15.02;;;;;;;;;;4995037;28;20296;-61
2023/04/19 10:40:47;;;;;;;23.58;15.32;;;;;;;;;;4994947;28;20797;-61
2023/04/19 10:43:17;;;;;;;21.27;14.25;;;;;;;;;;4982022;28;20233;-61
2023/04/19 10:45:45;;;;;;;23.25;14.70;;;;;;;;;;4994168;28;20257;-61
2023/04/19 10:48:29;;;;;;;21.13;13.98;;;;;;;;;;4994037;28;20207;-61
2023/04/19 10:51:01;;;;;;;22.48;13.68;;;;;;;;;;4994825;28;20206;-61
2023/04/19 10:53:44;;;;;;;20.60;13.60;;;;;;;;;;4994972;28;20199;-61
2023/04/19 10:56:12;;;;;;;18.13;12.50;;;;;;;;;;4994627;28;20203;-61
2023/04/19 10:58:58;;;;;;;18.83;12.70;;;;;;;;;;4995507;28;20288;-61
2023/04/19 11:01:36;;;;;;;17.45;12.02;;;;;;;;;;4995109;28;20206;-61
2023/04/19 11:04:03;;;;;;;18.25;12.18;;;;;;;;;;4995019;28;20505;-61
2023/04/19 11:06:32;;;;;;;18.30;11.38;;;;;;;;;;4995520;28;20211;-61
2023/04/19 11:09:01;;;;;;;18.45;11.55;;;;;;;;;;4995384;28;20206;-61
2023/04/19 11:11:29;;;;;;;18.88;11.23;;;;;;;;;;4994657;28;20225;-61
2023/04/19 11:13:57;;;;;;;16.83;10.65;;;;;;;;;;4995292;28;20627;-61
2023/04/19 11:16:25;;;;;;;17.15;10.52;;;;;;;;;;4994761;28;20610;-61
2023/04/19 11:18:52;;;;;;;16.55;11.30;;;;;;;;;;4994263;28;20243;-61
2023/04/19 11:21:20;;;;;;;14.43;10.48;;;;;;;;;;4994681;28;20289;-61
2023/04/19 11:23:49;;;;;;;15.40;9.90;;;;;;;;;;4994481;28;20226;-61
2023/04/19 11:26:16;;;;;;;15.98;10.20;;;;;;;;;;4993499;28;20211;-61
2023/04/19 11:28:45;;;;;;;15.30;9.50;;;;;;;;;;4994877;28;20207;-61
2023/04/19 11:31:12;;;;;;;15.05;10.20;;;;;;;;;;4999158;28;20218;-61
2023/04/19 11:33:39;;;;;;;12.45;8.80;;;;;;;;;;4998963;28;20206;-61
2023/04/19 11:36:13;;;;;;;14.15;9.63;;;;;;;;;;4998458;28;20211;-61
2023/04/19 11:38:40;;;;;;;12.88;9.07;;;;;;;;;;4998699;28;20293;-61
2023/04/19 11:41:09;;;;;;;13.70;8.93;;;;;;;;;;4997771;28;20238;-62
2023/04/19 11:43:36;;;;;;;11.23;8.48;;;;;;;;;;4998201;28;20227;-61
2023/04/19 11:46:07;;;;;;;11.60;8.50;;;;;;;;;;4997782;28;20218;-61
2023/04/19 11:48:34;;;;;;;10.90;8.05;;;;;;;;;;4998210;28;20214;-61
2023/04/19 11:51:02;;;;;;;12.35;8.65;;;;;;;;;;4996743;28;20630;-61
2023/04/19 11:53:30;;;;;;;12.00;8.38;;;;;;;;;;4997200;28;20211;-61
2023/04/19 11:55:58;;;;;;;9.88;7.68;;;;;;;;;;4996689;28;20210;-61
2023/04/19 11:58:28;;;;;;;10.13;7.10;;;;;;;;;;4997547;28;20207;-61
2023/04/19 12:00:57;;;;;;;11.60;7.55;;;;;;;;;;4996103;28;20687;-61
2023/04/19 12:03:24;;;;;;;10.02;6.93;;;;;;;;;;4996556;28;20547;-61
2023/04/19 12:05:55;;;;;;;12.20;8.07;;;;;;;;;;4997001;28;20210;-61
2023/04/19 12:08:31;;;;;;;11.23;7.40;;;;;;;;;;4996265;28;20203;-61
2023/04/19 12:10:58;;;;;;;10.25;7.47;;;;;;;;;;4996918;28;20234;-61
2023/04/19 12:13:26;;;;;;;9.23;6.78;;;;;;;;;;4996104;28;20595;-61
2023/04/19 12:15:54;;;;;;;9.98;7.18;;;;;;;;;;4996613;28;20218;-61
2023/04/19 12:18:22;;;;;;;9.27;6.55;;;;;;;;;;4996736;28;20207;-61
2023/04/19 12:20:49;;;;;;;9.20;6.75;;;;;;;;;;4995781;28;20487;-61
2023/04/19 12:23:17;;;;;;;8.88;6.53;;;;;;;;;;4996785;28;20230;-61
2023/04/19 12:25:45;;;;;;;10.57;6.25;;;;;;;;;;4996197;28;20207;-61
2023/04/19 12:28:12;;;;;;;9.25;6.15;;;;;;;;;;4995850;28;20214;-61
2023/04/19 12:30:40;;;;;;;7.22;5.70;;;;;;;;;;4995044;28;20207;-61
2023/04/19 12:33:09;;;;;;;8.02;6.15;;;;;;;;;;4995169;28;20547;-61
2023/04/19 12:35:38;;;;;;;7.97;5.88;;;;;;;;;;4995487;28;20309;-61
2023/04/19 12:38:05;;;;;;;7.97;5.68;;;;;;;;;;4995235;28;20299;-61
2023/04/19 12:40:32;;;;;;;9.77;6.57;;;;;;;;;;4994705;28;20207;-61
2023/04/19 12:42:59;;;;;;;7.63;5.60;;;;;;;;;;4995475;28;20659;-61
2023/04/19 12:45:27;;;;;;;7.57;5.65;;;;;;;;;;4995547;28;20206;-61
2023/04/19 12:47:54;;;;;;;7.40;5.65;;;;;;;;;;4995792;28;20207;-61
2023/04/19 12:50:23;;;;;;;5.90;5.28;;;;;;;;;;4995816;28;20273;-61
2023/04/19 12:52:52;;;;;;;7.78;5.70;;;;;;;;;;4995981;28;20527;-61
2023/04/19 12:55:19;;;;;;;7.55;5.43;;;;;;;;;;4995628;28;20211;-61
2023/04/19 12:57:47;;;;;;;6.72;5.25;;;;;;;;;;4995536;28;20617;-61
2023/04/19 13:00:16;;;;;;;7.18;5.45;;;;;;;;;;4994841;28;20530;-61
2023/04/19 13:02:43;;;;;;;6.70;5.37;;;;;;;;;;4954757;28;1188073;-61
2023/04/19 13:05:12;;;;;;;6.63;5.00;;;;;;;;;;4997280;28;20309;-61
2023/04/19 13:07:41;;;;;;;7.32;5.35;;;;;;;;;;4996808;28;20246;-61
2023/04/19 13:10:09;;;;;;;7.30;4.90;;;;;;;;;;4996004;28;20273;-61
2023/04/19 13:12:37;;;;;;;6.47;4.55;;;;;;;;;;4996404;28;20207;-61
2023/04/19 13:15:04;;;;;;;7.00;4.70;;;;;;;;;;4995932;28;20488;-61
2023/04/19 13:17:31;;;;;;;6.03;4.55;;;;;;;;;;4996074;28;20217;-61
2023/04/19 13:19:58;;;;;;;6.35;4.57;;;;;;;;;;4995462;28;20210;-61
2023/04/19 13:22:27;;;;;;;5.53;4.35;;;;;;;;;;4996507;28;20591;-61
2023/04/19 13:24:55;;;;;;;4.40;3.97;;;;;;;;;;4996259;28;20203;-61
2023/04/19 13:27:23;;;;;;;6.57;4.47;;;;;;;;;;4994994;28;20218;-61
2023/04/19 13:29:50;;;;;;;5.28;4.55;;;;;;;;;;4996560;28;20226;-61
2023/04/19 13:32:17;;;;;;;6.05;4.15;;;;;;;;;;4995389;28;20210;-61
2023/04/19 13:34:45;;;;;;;5.47;4.75;;;;;;;;;;4995218;28;20614;-61
2023/04/19 13:37:12;;;;;;;4.82;3.95;;;;;;;;;;4995779;28;20207;-61
2023/04/19 13:39:39;;;;;;;4.90;4.10;;;;;;;;;;4995074;28;20215;-61
2023/04/19 13:42:08;;;;;;;4.70;4.20;;;;;;;;;;4994405;28;20215;-61
2023/04/19 13:44:35;;;;;;;4.60;4.03;;;;;;;;;;4995799;28;20816;-61
2023/04/19 13:47:03;;;;;;;4.45;3.75;;;;;;;;;;4995783;28;20660;-61
2023/04/19 13:49:30;;;;;;;4.72;3.92;;;;;;;;;;4995613;28;20242;-61
2023/04/19 13:51:58;;;;;;;4.40;3.83;;;;;;;;;;4994816;28;20310;-61
2023/04/19 13:54:25;;;;;;;3.72;3.33;;;;;;;;;;4995918;28;20203;-61
2023/04/19 13:56:52;;;;;;;5.22;3.90;;;;;;;;;;4995897;28;20215;-61
2023/04/19 13:59:21;;;;;;;5.05;4.13;;;;;;;;;;4995838;28;20202;-61
2023/04/19 14:01:49;;;;;;;4.13;3.60;;;;;;;;;;4994612;28;20573;-61
2023/04/19 14:04:16;;;;;;;4.28;3.80;;;;;;;;;;4995572;28;20250;-61
2023/04/19 14:06:43;;;;;;;3.75;3.30;;;;;;;;;;4994417;28;20643;-61
2023/04/19 14:09:10;;;;;;;4.10;3.35;;;;;;;;;;4995586;28;20214;-61
2023/04/19 14:11:38;;;;;;;3.80;3.28;;;;;;;;;;4994380;28;20207;-61
2023/04/19 14:14:05;;;;;;;4.43;3.65;;;;;;;;;;4994830;28;20262;-61
2023/04/19 14:16:34;;;;;;;4.32;3.25;;;;;;;;;;4995331;28;20226;-61
2023/04/19 14:19:01;;;;;;;3.47;3.17;;;;;;;;;;4994882;28;20199;-61
2023/04/19 14:21:28;;;;;;;3.55;3.25;;;;;;;;;;4995288;28;20229;-61
2023/04/19 14:23:56;;;;;;;4.03;3.40;;;;;;;;;;4995300;28;20223;-61
2023/04/19 14:26:23;;;;;;;3.67;3.20;;;;;;;;;;4995379;28;20207;-61
2023/04/19 14:28:50;;;;;;;4.32;3.03;;;;;;;;;;4995202;28;20314;-61
2023/04/19 14:31:18;;;;;;;3.65;3.08;;;;;;;;;;4993865;28;20741;-61
2023/04/19 14:33:46;;;;;;;3.67;3.00;;;;;;;;;;4994991;28;20199;-61
2023/04/19 14:36:13;;;;;;;4.57;3.00;;;;;;;;;;4995368;28;20206;-61
2023/04/19 14:38:41;;;;;;;3.97;3.30;;;;;;;;;;4994444;28;20207;-61
2023/04/19 14:41:08;;;;;;;3.22;2.92;;;;;;;;;;4995304;28;20587;-61
2023/04/19 14:43:35;;;;;;;3.40;3.03;;;;;;;;;;4994362;28;20534;-61